< Typhoon 196014 1960 Season Typhoon 196016 >
Typhoon 196015 (CARMEN)
General InformationTrack Information on Google Maps || NewsDisaster Info.ResourceGoogle EarthGE AnimationAtom FeedGeoJSON
Detalied Best Track (Time Zone = UTC)
Year Month Day Hour Lat. Long. Pressure (hPa) Wind (kt) Class Image Chart
1960 8 15 00 23.8 128.8 998 0 2 -- Chart
1960 8 15 06 23.2 128.5 996 0 2 -- Chart
1960 8 15 12 23.0 128.0 996 0 2 -- Chart
1960 8 15 18 22.8 127.5 992 0 2 -- Chart
1960 8 16 00 22.5 127.0 992 0 9 -- Chart
1960 8 16 06 22.6 126.7 992 0 9 -- Chart
1960 8 16 12 22.8 126.5 992 0 9 -- Chart
1960 8 16 18 23.0 126.7 988 0 9 -- Chart
1960 8 17 00 23.2 127.0 988 0 9 -- Chart
1960 8 17 06 23.5 127.4 985 0 9 -- Chart
1960 8 17 12 23.9 127.3 985 0 9 -- Chart
1960 8 17 18 24.3 127.1 985 0 9 -- Chart
1960 8 18 00 24.6 127.0 985 0 9 -- Chart
1960 8 18 06 24.8 127.2 980 0 9 -- Chart
1960 8 18 12 24.6 127.4 975 0 9 -- Chart
1960 8 18 18 24.5 127.5 975 0 9 -- Chart
1960 8 19 00 24.4 127.6 975 0 9 -- Chart
1960 8 19 06 24.4 128.0 975 0 9 -- Chart
1960 8 19 12 24.2 128.2 975 0 9 -- Chart
1960 8 19 18 24.5 128.4 975 0 9 -- Chart
1960 8 20 00 24.8 128.7 975 0 9 -- Chart
1960 8 20 06 25.1 128.4 975 0 9 -- Chart
1960 8 20 12 25.1 128.0 978 0 9 -- Chart
1960 8 20 18 25.2 127.7 978 0 9 -- Chart
1960 8 21 00 26.2 127.3 978 0 9 -- Chart
1960 8 21 06 26.8 126.7 978 0 9 -- Chart
1960 8 21 12 27.3 125.7 980 0 9 -- Chart
1960 8 21 18 28.3 124.5 980 0 9 -- Chart
1960 8 22 00 29.6 124.5 980 0 9 -- Chart
1960 8 22 06 30.9 124.8 980 0 9 -- Chart
1960 8 22 12 32.6 124.9 980 0 9 -- Chart
1960 8 22 18 34.3 125.0 980 0 9 -- Chart
1960 8 23 00 37.3 126.2 980 0 9 -- Chart
1960 8 23 06 39.7 128.8 980 0 9 -- Chart
1960 8 23 12 43.0 131.1 982 0 9 -- Chart
1960 8 23 18 47.0 132.0 980 0 9 -- Chart
1960 8 24 00 49.6 132.1 980 0 6 -- Chart
1960 8 24 06 51.0 133.0 982 0 6 -- Chart
1960 8 24 12 52.0 134.0 988 0 6 -- Chart
1960 8 24 18 53.0 135.0 994 0 6 -- Chart
1960 8 25 00 54.0 136.0 988 0 6 -- Chart
1960 8 25 06 54.0 140.0 1003 0 6 -- Chart
1960 8 25 12 54.0 143.0 1006 0 6 -- Chart
Japan Meteorological Agency Best Track Data | Correction Date : 1989-06-01
< Typhoon 196014 1960 Season Typhoon 196016 >

Help